Time,TemperatureF,DewpointF,PressureIn,WindDirection,WindDirectionDegrees,WindSpeedMPH,WindSpeedGustMPH,Humidity,HourlyPrecipIn,Conditions,Clouds,dailyrainin,SoftwareType,DateUTC
2013-03-23 00:19:00,53.9,32.0,29.73,WNW,292,5.0,-999.0,43,-99.99,,,0.00,weatherlink.com 1.10,2013-03-22 22:19:00,
2013-03-23 00:34:00,53.9,30.0,29.73,WNW,296,0.0,-999.0,41,-99.99,,,0.00,weatherlink.com 1.10,2013-03-22 22:34:00,
2013-03-23 00:49:00,53.8,29.0,29.74,WNW,288,6.0,-999.0,38,-99.99,,,0.00,weatherlink.com 1.10,2013-03-22 22:49:00,
2013-03-23 01:04:00,53.6,28.0,29.74,NW,312,0.0,-999.0,38,-99.99,,,0.00,weatherlink.com 1.10,2013-03-22 23:04:00,
2013-03-23 01:19:00,53.3,29.0,29.74,NW,316,0.0,-999.0,39,-99.99,,,0.00,weatherlink.com 1.10,2013-03-22 23:19:00,
2013-03-23 01:34:00,53.2,29.0,29.74,NW,313,2.0,-999.0,39,-99.99,,,0.00,weatherlink.com 1.10,2013-03-22 23:34:00,
2013-03-23 01:49:00,52.2,30.0,29.75,NNE,30,0.0,-999.0,42,-99.99,,,0.00,weatherlink.com 1.10,2013-03-22 23:49:00,
2013-03-23 02:04:00,51.6,29.0,29.75,NE,36,0.0,-999.0,42,-99.99,,,0.00,weatherlink.com 1.10,2013-03-23 00:04:00,
2013-03-23 02:19:00,51.0,30.0,29.75,SW,223,4.0,-999.0,44,-99.99,,,0.00,weatherlink.com 1.10,2013-03-23 00:19:00,
2013-03-23 02:34:00,51.4,30.0,29.76,East,90,1.0,-999.0,44,-99.99,,,0.00,weatherlink.com 1.10,2013-03-23 00:34:00,
2013-03-23 02:49:00,50.9,31.0,29.76,East,90,3.0,-999.0,46,-99.99,,,0.00,weatherlink.com 1.10,2013-03-23 00:49:00,
2013-03-23 03:04:00,50.8,31.0,29.77,East,90,1.0,-999.0,47,-99.99,,,0.00,weatherlink.com 1.10,2013-03-23 01:04:00,
2013-03-23 03:19:00,50.2,30.0,29.77,East,90,0.0,-999.0,47,-99.99,,,0.00,weatherlink.com 1.10,2013-03-23 01:19:00,
2013-03-23 03:34:00,49.8,31.0,29.77,East,87,0.0,-999.0,48,-99.99,,,0.00,weatherlink.com 1.10,2013-03-23 01:34:00,
2013-03-23 03:49:00,49.9,29.0,29.78,East,87,0.0,-999.0,44,-99.99,,,0.00,weatherlink.com 1.10,2013-03-23 01:49:00,
2013-03-23 04:04:00,49.8,27.0,29.78,East,87,0.0,-999.0,41,-99.99,,,0.00,weatherlink.com 1.10,2013-03-23 02:04:00,
2013-03-23 04:19:00,50.0,25.0,29.78,East,80,0.0,-999.0,38,-99.99,,,0.00,weatherlink.com 1.10,2013-03-23 02:19:00,
2013-03-23 04:34:00,50.1,24.0,29.79,East,80,0.0,-999.0,36,-99.99,,,0.00,weatherlink.com 1.10,2013-03-23 02:34:00,
2013-03-23 04:49:00,50.4,22.0,29.79,ENE,78,0.0,-999.0,33,-99.99,,,0.00,weatherlink.com 1.10,2013-03-23 02:49:00,
2013-03-23 05:04:00,50.3,21.0,29.80,NE,51,0.0,-999.0,31,-99.99,,,0.00,weatherlink.com 1.10,2013-03-23 03:04:00,
2013-03-23 05:20:00,50.5,21.0,29.80,NE,49,0.0,-999.0,31,-99.99,,,0.00,weatherlink.com 1.10,2013-03-23 03:20:00,
2013-03-23 05:34:00,50.5,21.0,29.80,NE,49,0.0,-999.0,31,-99.99,,,0.00,weatherlink.com 1.10,2013-03-23 03:34:00,
2013-03-23 05:50:00,50.5,21.0,29.81,NE,49,0.0,-999.0,32,-99.99,,,0.00,weatherlink.com 1.10,2013-03-23 03:50:00,
2013-03-23 06:05:00,49.6,22.0,29.82,NE,49,1.0,-999.0,34,-99.99,,,0.00,weatherlink.com 1.10,2013-03-23 04:05:00,
2013-03-23 06:20:00,48.8,22.0,29.82,NE,49,0.0,-999.0,35,-99.99,,,0.00,weatherlink.com 1.10,2013-03-23 04:20:00,
2013-03-23 06:35:00,49.0,21.0,29.83,NE,49,1.0,-999.0,33,-99.99,,,0.00,weatherlink.com 1.10,2013-03-23 04:35:00,
2013-03-23 06:50:00,48.2,22.0,29.84,NE,53,1.0,-999.0,35,-99.99,,,0.00,weatherlink.com 1.10,2013-03-23 04:50:00,
2013-03-23 07:05:00,48.3,21.0,29.85,NE,54,2.0,-999.0,34,-99.99,,,0.00,weatherlink.com 1.10,2013-03-23 05:05:00,
2013-03-23 07:20:00,49.1,21.0,29.86,NE,56,3.0,-999.0,33,-99.99,,,0.00,weatherlink.com 1.10,2013-03-23 05:20:00,
2013-03-23 07:35:00,51.7,22.0,29.86,NE,56,0.0,-999.0,31,-99.99,,,0.00,weatherlink.com 1.10,2013-03-23 05:35:00,
2013-03-23 07:50:00,52.8,22.0,29.86,NE,56,3.0,-999.0,30,-99.99,,,0.00,weatherlink.com 1.10,2013-03-23 05:50:00,
2013-03-23 08:05:00,51.9,21.0,29.87,ENE,57,2.0,-999.0,30,-99.99,,,0.00,weatherlink.com 1.10,2013-03-23 06:05:00,
2013-03-23 08:20:00,53.1,20.0,29.87,ENE,63,4.0,-999.0,27,-99.99,,,0.00,weatherlink.com 1.10,2013-03-23 06:20:00,
2013-03-23 08:35:00,53.9,20.0,29.88,ENE,69,0.0,-999.0,26,-99.99,,,0.00,weatherlink.com 1.10,2013-03-23 06:35:00,
2013-03-23 08:50:00,55.2,20.0,29.87,NE,36,5.0,-999.0,25,-99.99,,,0.00,weatherlink.com 1.10,2013-03-23 06:50:00,
2013-03-23 09:05:00,55.0,20.0,29.88,WNW,294,2.0,-999.0,25,-99.99,,,0.00,weatherlink.com 1.10,2013-03-23 07:05:00,
2013-03-23 09:20:00,55.9,19.0,29.88,NW,315,1.0,-999.0,24,-99.99,,,0.00,weatherlink.com 1.10,2013-03-23 07:20:00,
2013-03-23 09:35:00,55.3,18.0,29.88,WNW,285,7.0,-999.0,23,-99.99,,,0.00,weatherlink.com 1.10,2013-03-23 07:35:00,
2013-03-23 09:50:00,55.6,18.0,29.88,NW,321,3.0,-999.0,23,-99.99,,,0.00,weatherlink.com 1.10,2013-03-23 07:50:00,
2013-03-23 10:05:00,55.5,18.0,29.88,WNW,284,0.0,-999.0,23,-99.99,,,0.00,weatherlink.com 1.10,2013-03-23 08:05:00,
2013-03-23 10:20:00,56.1,18.0,29.89,West,277,7.0,-999.0,22,-99.99,,,0.00,weatherlink.com 1.10,2013-03-23 08:20:00,
2013-03-23 10:50:00,57.8,17.0,29.89,NW,304,0.0,-999.0,20,-99.99,,,0.00,weatherlink.com 1.10,2013-03-23 08:50:00,
2013-03-23 11:05:00,57.4,21.0,29.89,SW,223,9.0,-999.0,24,-99.99,,,0.00,weatherlink.com 1.10,2013-03-23 09:05:00,
2013-03-23 11:20:00,56.7,20.0,29.89,West,259,1.0,-999.0,24,-99.99,,,0.00,weatherlink.com 1.10,2013-03-23 09:20:00,
2013-03-23 11:35:00,57.6,21.0,29.89,South,177,5.0,-999.0,24,-99.99,,,0.00,weatherlink.com 1.10,2013-03-23 09:35:00,
2013-03-23 11:50:00,57.3,23.0,29.89,SW,214,7.0,-999.0,27,-99.99,,,0.00,weatherlink.com 1.10,2013-03-23 09:50:00,
2013-03-23 12:05:00,58.0,26.0,29.89,SSW,198,6.0,-999.0,29,-99.99,,,0.00,weatherlink.com 1.10,2013-03-23 10:05:00,
2013-03-23 12:20:00,58.9,27.0,29.89,South,190,8.0,-999.0,29,-99.99,,,0.00,weatherlink.com 1.10,2013-03-23 10:20:00,
2013-03-23 12:35:00,58.8,26.0,29.89,South,175,5.0,-999.0,28,-99.99,,,0.00,weatherlink.com 1.10,2013-03-23 10:35:00,
2013-03-23 12:50:00,59.0,23.0,29.89,SW,227,11.0,-999.0,25,-99.99,,,0.00,weatherlink.com 1.10,2013-03-23 10:50:00,
2013-03-23 13:05:00,59.6,19.0,29.89,South,182,7.0,-999.0,21,-99.99,,,0.00,weatherlink.com 1.10,2013-03-23 11:05:00,
2013-03-23 13:20:00,60.5,20.0,29.89,SSW,213,5.0,-999.0,21,-99.99,,,0.00,weatherlink.com 1.10,2013-03-23 11:20:00,
2013-03-23 13:35:00,60.7,20.0,29.88,WSW,240,2.0,-999.0,21,-99.99,,,0.00,weatherlink.com 1.10,2013-03-23 11:35:00,
2013-03-23 13:51:00,60.9,24.0,29.88,WSW,241,5.0,-999.0,24,-99.99,,,0.00,weatherlink.com 1.10,2013-03-23 11:51:00,
2013-03-23 14:05:00,61.3,26.0,29.88,SW,224,8.0,-999.0,26,-99.99,,,0.00,weatherlink.com 1.10,2013-03-23 12:05:00,
2013-03-23 14:20:00,61.3,24.0,29.87,West,261,3.0,-999.0,24,-99.99,,,0.00,weatherlink.com 1.10,2013-03-23 12:20:00,
2013-03-23 14:35:00,61.3,25.0,29.87,SSW,201,7.0,-999.0,25,-99.99,,,0.00,weatherlink.com 1.10,2013-03-23 12:35:00,
2013-03-23 14:50:00,62.0,25.0,29.87,SE,140,1.0,-999.0,24,-99.99,,,0.00,weatherlink.com 1.10,2013-03-23 12:50:00,
2013-03-23 15:06:00,61.9,24.0,29.86,SSE,147,7.0,-999.0,23,-99.99,,,0.00,weatherlink.com 1.10,2013-03-23 13:06:00,
2013-03-23 15:21:00,61.8,24.0,29.86,SE,144,9.0,-999.0,24,-99.99,,,0.00,weatherlink.com 1.10,2013-03-23 13:21:00,
2013-03-23 15:36:00,61.2,29.0,29.86,SE,140,5.0,-999.0,29,-99.99,,,0.00,weatherlink.com 1.10,2013-03-23 13:36:00,
2013-03-23 15:51:00,61.1,24.0,29.86,SSE,149,10.0,-999.0,24,-99.99,,,0.00,weatherlink.com 1.10,2013-03-23 13:51:00,
2013-03-23 16:06:00,60.4,28.0,29.86,SE,144,13.0,-999.0,29,-99.99,,,0.00,weatherlink.com 1.10,2013-03-23 14:06:00,
2013-03-23 16:21:00,59.9,30.0,29.86,SSE,159,15.0,-999.0,32,-99.99,,,0.00,weatherlink.com 1.10,2013-03-23 14:21:00,
2013-03-23 16:36:00,60.1,31.0,29.86,South,170,6.0,-999.0,34,-99.99,,,0.00,weatherlink.com 1.10,2013-03-23 14:36:00,
2013-03-23 16:51:00,59.5,35.0,29.86,SSW,202,11.0,-999.0,40,-99.99,,,0.00,weatherlink.com 1.10,2013-03-23 14:51:00,
2013-03-23 17:06:00,58.9,35.0,29.87,SSW,200,4.0,-999.0,41,-99.99,,,0.00,weatherlink.com 1.10,2013-03-23 15:06:00,
2013-03-23 17:21:00,59.3,37.0,29.87,SSW,196,12.0,-999.0,43,-99.99,,,0.00,weatherlink.com 1.10,2013-03-23 15:21:00,
2013-03-23 17:36:00,58.8,37.0,29.87,South,174,7.0,-999.0,45,-99.99,,,0.00,weatherlink.com 1.10,2013-03-23 15:36:00,
2013-03-23 17:51:00,58.5,38.0,29.87,South,169,11.0,-999.0,46,-99.99,,,0.00,weatherlink.com 1.10,2013-03-23 15:51:00,
2013-03-23 18:06:00,58.1,38.0,29.88,South,176,6.0,-999.0,47,-99.99,,,0.00,weatherlink.com 1.10,2013-03-23 16:06:00,
2013-03-23 18:21:00,57.5,38.0,29.87,SSE,148,10.0,-999.0,49,-99.99,,,0.00,weatherlink.com 1.10,2013-03-23 16:21:00,
2013-03-23 18:51:00,56.4,39.0,29.89,South,184,11.0,-999.0,53,-99.99,,,0.00,weatherlink.com 1.10,2013-03-23 16:51:00,
2013-03-23 19:36:00,56.0,39.0,29.90,SSE,149,8.0,-999.0,54,-99.99,,,0.00,weatherlink.com 1.10,2013-03-23 17:36:00,
2013-03-23 20:36:00,55.7,41.0,29.91,SSE,156,7.0,-999.0,58,-99.99,,,0.00,weatherlink.com 1.10,2013-03-23 18:36:00,
2013-03-23 21:06:00,55.7,42.0,29.92,SE,140,8.0,-999.0,61,-99.99,,,0.00,weatherlink.com 1.10,2013-03-23 19:06:00,
2013-03-23 21:21:00,55.7,42.0,29.92,SE,136,13.0,-999.0,61,-99.99,,,0.00,weatherlink.com 1.10,2013-03-23 19:21:00,
2013-03-23 21:51:00,55.6,43.0,29.92,SE,138,5.0,-999.0,62,-99.99,,,0.00,weatherlink.com 1.10,2013-03-23 19:51:00,
2013-03-23 22:06:00,55.5,42.0,29.92,SE,142,3.0,-999.0,62,-99.99,,,0.00,weatherlink.com 1.10,2013-03-23 20:06:00,
2013-03-23 22:21:00,55.4,42.0,29.92,SE,126,0.0,-999.0,62,-99.99,,,0.00,weatherlink.com 1.10,2013-03-23 20:21:00,
2013-03-23 22:36:00,54.8,41.0,29.92,East,82,0.0,-999.0,59,-99.99,,,0.00,weatherlink.com 1.10,2013-03-23 20:36:00,
2013-03-23 22:51:00,54.1,39.0,29.93,ENE,76,2.0,-999.0,58,-99.99,,,0.00,weatherlink.com 1.10,2013-03-23 20:51:00,
2013-03-23 23:06:00,53.5,38.0,29.93,ENE,76,0.0,-999.0,57,-99.99,,,0.00,weatherlink.com 1.10,2013-03-23 21:06:00,
2013-03-23 23:21:00,53.4,38.0,29.93,ENE,75,0.0,-999.0,57,-99.99,,,0.00,weatherlink.com 1.10,2013-03-23 21:21:00,
2013-03-23 23:36:00,53.4,38.0,29.93,ENE,76,0.0,-999.0,57,-99.99,,,0.00,weatherlink.com 1.10,2013-03-23 21:36:00,
2013-03-23 23:51:00,53.1,38.0,29.93,ENE,76,1.0,-999.0,57,-99.99,,,0.00,weatherlink.com 1.10,2013-03-23 21:51:00,